This is the latest recevied weather packets stored in our database for station/object ENRA. If no packets are shown the sender has not sent any weather packets the latest 10 day(s).
| Time | Temp. | Humidity | Pressure | Rain* | Wind** | Luminosity | Snow |
|---|---|---|---|---|---|---|---|
| 1787893388 | 10° C | 87% | 1020 hPa | - | - | - | - |
| 1787891588 | 8.89° C | 93% | 1020 hPa | - | - | - | - |
| 1787889787 | 8.89° C | 93% | 1020 hPa | - | - | - | - |
| 1787887987 | 7.78° C | 93% | 1020 hPa | - | - | - | - |
| 1787886187 | 8.89° C | 87% | 1020 hPa | - | - | - | - |
| 1787884387 | 8.89° C | 93% | 1021 hPa | - | - | - | - |
| 1787882587 | 8.89° C | 87% | 1021 hPa | - | - | - | - |
| 1787880786 | 7.78° C | 10% | - | - | - | - | - |
| 1787878988 | 8.89° C | 93% | 1021 hPa | - | - | - | - |
| 1787877187 | 8.89° C | 93% | 1021 hPa | - | - | - | - |
| 1787875387 | 8.89° C | 93% | 1021 hPa | - | - | - | - |
| 1787873587 | 8.89° C | 93% | 1022 hPa | - | - | - | - |
| 1787871787 | 10.56° C | 81% | 1022 hPa | - | - | - | - |
| 1787869987 | 11.67° C | 81% | 1022 hPa | - | - | - | - |
| 1787868187 | 11.67° C | 81% | 1022 hPa | - | - | - | - |
| 1787866387 | 10° C | 93% | 1022 hPa | - | - | - | - |
| 1787864587 | 10° C | 93% | 1022 hPa | - | - | - | - |
| 1787862788 | 10.56° C | 87% | 1022 hPa | - | - | - | - |
| 1787860986 | 10.56° C | 87% | 1022 hPa | - | - | - | - |
| 1787859186 | 11.67° C | 87% | 1022 hPa | - | - | - | - |
| 1787857386 | 12.78° C | 81% | 1022 hPa | - | - | - | - |
| 1787855587 | 15° C | 72% | 1022 hPa | - | - | - | - |
| 1787853788 | 16.67° C | 63% | 1022 hPa | - | - | - | - |
| 1787851987 | 16.67° C | 67% | 1022 hPa | - | - | - | - |
| 1787850187 | 17.78° C | 67% | 1022 hPa | - | - | - | - |
* Rain since midnight (hover to see other rain measurements)
** Current wind speed in m/s (hover to see current wind gust speed)